sensor_id;sensor_type;location;lat;lon;timestamp;pressure;altitude;pressure_sealevel;temperature;humidity
33163;BME280;29282;45.656;11.302;2023-06-24T00:01:34;98463.16;;;25.01;59.23
33163;BME280;29282;45.656;11.302;2023-06-24T00:04:00;98465.50;;;24.99;59.19
33163;BME280;29282;45.656;11.302;2023-06-24T00:06:25;98469.50;;;25.01;59.26
33163;BME280;29282;45.656;11.302;2023-06-24T00:08:52;98461.53;;;25.00;59.32
33163;BME280;29282;45.656;11.302;2023-06-24T00:11:26;98463.16;;;25.01;59.31
33163;BME280;29282;45.656;11.302;2023-06-24T00:13:51;98459.59;;;25.00;59.17
33163;BME280;29282;45.656;11.302;2023-06-24T00:16:17;98451.28;;;25.00;59.37
33163;BME280;29282;45.656;11.302;2023-06-24T00:18:42;98455.19;;;24.99;59.33
33163;BME280;29282;45.656;11.302;2023-06-24T00:21:08;98450.44;;;25.00;59.16
33163;BME280;29282;45.656;11.302;2023-06-24T00:23:33;98444.91;;;25.00;59.38
33163;BME280;29282;45.656;11.302;2023-06-24T00:26:00;98441.34;;;24.99;59.29
33163;BME280;29282;45.656;11.302;2023-06-24T00:28:26;98451.63;;;24.99;59.27
33163;BME280;29282;45.656;11.302;2023-06-24T00:30:52;98434.63;;;25.00;59.38
33163;BME280;29282;45.656;11.302;2023-06-24T00:33:18;98426.69;;;24.99;59.25
33163;BME280;29282;45.656;11.302;2023-06-24T00:35:45;98434.63;;;25.00;59.28
33163;BME280;29282;45.656;11.302;2023-06-24T00:38:10;98433.81;;;25.00;59.44
33163;BME280;29282;45.656;11.302;2023-06-24T00:40:37;98429.47;;;24.99;59.08
33163;BME280;29282;45.656;11.302;2023-06-24T00:43:03;98427.47;;;24.99;59.30
33163;BME280;29282;45.656;11.302;2023-06-24T00:45:28;98429.47;;;24.99;59.24
33163;BME280;29282;45.656;11.302;2023-06-24T00:48:00;98423.13;;;24.98;59.21
33163;BME280;29282;45.656;11.302;2023-06-24T00:50:26;98427.47;;;24.99;59.19
33163;BME280;29282;45.656;11.302;2023-06-24T00:52:52;98428.66;;;24.98;59.25
33163;BME280;29282;45.656;11.302;2023-06-24T00:55:18;98429.47;;;24.99;59.32
33163;BME280;29282;45.656;11.302;2023-06-24T00:57:51;98433.03;;;24.99;59.30
33163;BME280;29282;45.656;11.302;2023-06-24T01:00:19;98423.91;;;24.99;59.28
33163;BME280;29282;45.656;11.302;2023-06-24T01:02:47;98421.13;;;24.99;59.25
33163;BME280;29282;45.656;11.302;2023-06-24T01:05:13;98415.59;;;24.99;59.29
33163;BME280;29282;45.656;11.302;2023-06-24T01:07:40;98423.13;;;24.98;59.48
33163;BME280;29282;45.656;11.302;2023-06-24T01:10:07;98422.31;;;24.98;59.14
33163;BME280;29282;45.656;11.302;2023-06-24T01:12:34;98424.31;;;24.97;59.04
33163;BME280;29282;45.656;11.302;2023-06-24T01:15:01;98421.13;;;24.99;59.19
33163;BME280;29282;45.656;11.302;2023-06-24T01:17:52;98419.56;;;24.98;59.17
33163;BME280;29282;45.656;11.302;2023-06-24T01:20:55;98416.78;;;24.98;58.99
33163;BME280;29282;45.656;11.302;2023-06-24T01:36:36;98414.00;;;24.98;58.98
33163;BME280;29282;45.656;11.302;2023-06-24T01:39:06;98422.69;;;24.96;58.87
33163;BME280;29282;45.656;11.302;2023-06-24T01:41:41;98418.75;;;24.97;58.95
33163;BME280;29282;45.656;11.302;2023-06-24T01:44:09;98427.06;;;24.97;58.70
33163;BME280;29282;45.656;11.302;2023-06-24T01:46:39;98425.44;;;24.96;59.03
33163;BME280;29282;45.656;11.302;2023-06-24T01:49:07;98423.50;;;24.97;59.22
33163;BME280;29282;45.656;11.302;2023-06-24T01:51:36;98438.97;;;24.98;58.88
33163;BME280;29282;45.656;11.302;2023-06-24T01:54:06;98440.94;;;24.97;58.97
33163;BME280;29282;45.656;11.302;2023-06-24T01:56:33;98440.94;;;24.97;58.87
33163;BME280;29282;45.656;11.302;2023-06-24T01:59:02;98445.69;;;24.97;58.82
33163;BME280;29282;45.656;11.302;2023-06-24T02:01:31;98442.91;;;24.97;58.93
33163;BME280;29282;45.656;11.302;2023-06-24T02:03:58;98444.06;;;24.96;58.84
33163;BME280;29282;45.656;11.302;2023-06-24T02:06:26;98451.22;;;24.97;58.96
33163;BME280;29282;45.656;11.302;2023-06-24T02:08:58;98444.06;;;24.96;58.98
33163;BME280;29282;45.656;11.302;2023-06-24T02:11:24;98453.16;;;24.96;58.80
33163;BME280;29282;45.656;11.302;2023-06-24T02:13:51;98452.38;;;24.96;59.01
33163;BME280;29282;45.656;11.302;2023-06-24T02:16:20;98447.63;;;24.96;58.79
33163;BME280;29282;45.656;11.302;2023-06-24T02:18:45;98443.25;;;24.95;58.71
33163;BME280;29282;45.656;11.302;2023-06-24T02:21:14;98449.59;;;24.96;58.94
33163;BME280;29282;45.656;11.302;2023-06-24T02:23:42;98450.41;;;24.96;58.77
33163;BME280;29282;45.656;11.302;2023-06-24T02:26:08;98452.38;;;24.96;58.87
33163;BME280;29282;45.656;11.302;2023-06-24T02:28:35;98445.69;;;24.97;58.89
33163;BME280;29282;45.656;11.302;2023-06-24T02:31:02;98448.81;;;24.95;58.64
33163;BME280;29282;45.656;11.302;2023-06-24T02:33:28;98449.59;;;24.96;58.81
33163;BME280;29282;45.656;11.302;2023-06-24T02:35:54;98457.91;;;24.96;58.87
33163;BME280;29282;45.656;11.302;2023-06-24T02:38:19;98459.53;;;24.97;58.77
33163;BME280;29282;45.656;11.302;2023-06-24T02:40:45;98458.34;;;24.98;59.18
33163;BME280;29282;45.656;11.302;2023-06-24T02:43:11;98449.59;;;24.96;58.94
33163;BME280;29282;45.656;11.302;2023-06-24T02:45:37;98463.47;;;24.96;58.68
33163;BME280;29282;45.656;11.302;2023-06-24T02:48:04;98465.44;;;24.95;58.88
33163;BME280;29282;45.656;11.302;2023-06-24T02:50:31;98464.66;;;24.95;58.85
33163;BME280;29282;45.656;11.302;2023-06-24T02:52:58;98463.47;;;24.96;58.91
33163;BME280;29282;45.656;11.302;2023-06-24T02:55:24;98463.84;;;24.94;58.99
33163;BME280;29282;45.656;11.302;2023-06-24T02:57:50;98461.09;;;24.94;58.94
33163;BME280;29282;45.656;11.302;2023-06-24T03:00:16;98469.41;;;24.94;58.88
33163;BME280;29282;45.656;11.302;2023-06-24T03:02:43;98481.28;;;24.95;58.85
33163;BME280;29282;45.656;11.302;2023-06-24T03:05:10;98488.41;;;24.96;58.88
33163;BME280;29282;45.656;11.302;2023-06-24T03:07:37;98486.03;;;24.94;58.85
33163;BME280;29282;45.656;11.302;2023-06-24T03:10:04;98492.38;;;24.95;58.87
33163;BME280;29282;45.656;11.302;2023-06-24T03:12:31;98501.88;;;24.94;58.70
33163;BME280;29282;45.656;11.302;2023-06-24T03:14:57;98503.44;;;24.95;59.01
33163;BME280;29282;45.656;11.302;2023-06-24T03:17:22;98508.19;;;24.94;58.82
33163;BME280;29282;45.656;11.302;2023-06-24T03:19:48;98516.50;;;24.94;58.85
33163;BME280;29282;45.656;11.302;2023-06-24T03:22:13;98526.81;;;24.94;58.95
33163;BME280;29282;45.656;11.302;2023-06-24T03:24:39;98535.91;;;24.94;58.84
33163;BME280;29282;45.656;11.302;2023-06-24T03:27:04;98534.28;;;24.93;58.80
33163;BME280;29282;45.656;11.302;2023-06-24T03:29:30;98538.69;;;24.94;58.82
33163;BME280;29282;45.656;11.302;2023-06-24T03:31:55;98543.44;;;24.94;58.75
33163;BME280;29282;45.656;11.302;2023-06-24T03:34:21;98548.16;;;24.93;59.07
33163;BME280;29282;45.656;11.302;2023-06-24T03:36:49;98542.59;;;24.93;59.00
33163;BME280;29282;45.656;11.302;2023-06-24T03:39:14;98551.75;;;24.94;58.76
33163;BME280;29282;45.656;11.302;2023-06-24T03:41:42;98554.88;;;24.92;58.76
33163;BME280;29282;45.656;11.302;2023-06-24T03:44:08;98550.94;;;24.93;58.68
33163;BME280;29282;45.656;11.302;2023-06-24T03:46:33;98562.00;;;24.93;58.67
33163;BME280;29282;45.656;11.302;2023-06-24T03:48:59;98556.47;;;24.93;58.76
33163;BME280;29282;45.656;11.302;2023-06-24T03:51:25;98564.00;;;24.93;58.71
33163;BME280;29282;45.656;11.302;2023-06-24T03:53:51;98561.22;;;24.93;58.75
33163;BME280;29282;45.656;11.302;2023-06-24T03:56:17;98566.75;;;24.93;58.74
33163;BME280;29282;45.656;11.302;2023-06-24T03:58:42;98568.75;;;24.92;58.74
33163;BME280;29282;45.656;11.302;2023-06-24T04:01:08;98571.16;;;24.94;58.74
33163;BME280;29282;45.656;11.302;2023-06-24T04:03:34;98569.53;;;24.93;58.64
33163;BME280;29282;45.656;11.302;2023-06-24T04:06:00;98569.53;;;24.93;58.69
33163;BME280;29282;45.656;11.302;2023-06-24T04:08:27;98571.50;;;24.92;58.76
33163;BME280;29282;45.656;11.302;2023-06-24T04:10:56;98580.63;;;24.93;58.63
33163;BME280;29282;45.656;11.302;2023-06-24T04:13:22;98581.81;;;24.92;58.66
33163;BME280;29282;45.656;11.302;2023-06-24T04:15:47;98574.28;;;24.92;58.68
33163;BME280;29282;45.656;11.302;2023-06-24T04:18:13;98580.63;;;24.93;58.65
33163;BME280;29282;45.656;11.302;2023-06-24T04:20:39;98581.81;;;24.92;58.60
33163;BME280;29282;45.656;11.302;2023-06-24T04:23:05;98582.59;;;24.92;58.64
33163;BME280;29282;45.656;11.302;2023-06-24T04:25:35;98587.34;;;24.92;58.51
33163;BME280;29282;45.656;11.302;2023-06-24T04:28:01;98592.88;;;24.92;58.60
33163;BME280;29282;45.656;11.302;2023-06-24T04:30:27;98594.88;;;24.91;58.66
33163;BME280;29282;45.656;11.302;2023-06-24T04:32:52;98598.03;;;24.93;58.50
33163;BME280;29282;45.656;11.302;2023-06-24T04:35:18;98602.00;;;24.92;58.56
33163;BME280;29282;45.656;11.302;2023-06-24T04:37:44;98601.19;;;24.92;58.59
33163;BME280;29282;45.656;11.302;2023-06-24T04:40:09;98599.59;;;24.91;58.58
33163;BME280;29282;45.656;11.302;2023-06-24T04:42:35;98607.53;;;24.92;58.58
33163;BME280;29282;45.656;11.302;2023-06-24T04:45:01;98610.31;;;24.92;58.78
33163;BME280;29282;45.656;11.302;2023-06-24T04:47:30;98615.13;;;24.95;58.55
33163;BME280;29282;45.656;11.302;2023-06-24T04:49:56;98615.97;;;24.99;58.54
33163;BME280;29282;45.656;11.302;2023-06-24T04:52:23;98614.44;;;25.02;58.36
33163;BME280;29282;45.656;11.302;2023-06-24T04:54:48;98622.41;;;25.03;58.38
33163;BME280;29282;45.656;11.302;2023-06-24T04:57:30;98625.97;;;25.04;58.43
33163;BME280;29282;45.656;11.302;2023-06-24T04:59:57;98630.31;;;25.05;58.26
33163;BME280;29282;45.656;11.302;2023-06-24T05:02:23;98640.25;;;25.06;58.53
33163;BME280;29282;45.656;11.302;2023-06-24T05:04:49;98633.53;;;25.07;58.22
33163;BME280;29282;45.656;11.302;2023-06-24T05:07:15;98631.13;;;25.05;58.18
33163;BME280;29282;45.656;11.302;2023-06-24T05:09:40;98635.13;;;25.08;58.35
33163;BME280;29282;45.656;11.302;2023-06-24T05:12:07;98636.31;;;25.07;58.36
33163;BME280;29282;45.656;11.302;2023-06-24T05:14:36;98642.66;;;25.07;58.29
33163;BME280;29282;45.656;11.302;2023-06-24T05:17:03;98642.66;;;25.07;58.12
33163;BME280;29282;45.656;11.302;2023-06-24T05:19:28;98637.91;;;25.08;58.30
33163;BME280;29282;45.656;11.302;2023-06-24T05:21:54;98645.44;;;25.07;58.22
33163;BME280;29282;45.656;11.302;2023-06-24T05:24:20;98643.44;;;25.08;58.33
33163;BME280;29282;45.656;11.302;2023-06-24T05:26:48;98645.44;;;25.07;58.26
33163;BME280;29282;45.656;11.302;2023-06-24T05:29:14;98643.44;;;25.08;58.30
33163;BME280;29282;45.656;11.302;2023-06-24T05:31:40;98645.44;;;25.07;58.25
33163;BME280;29282;45.656;11.302;2023-06-24T05:34:06;98657.31;;;25.08;58.20
33163;BME280;29282;45.656;11.302;2023-06-24T05:36:32;98656.13;;;25.09;58.19
33163;BME280;29282;45.656;11.302;2023-06-24T05:38:57;98660.09;;;25.08;58.18
33163;BME280;29282;45.656;11.302;2023-06-24T05:41:23;98658.09;;;25.08;58.28
33163;BME280;29282;45.656;11.302;2023-06-24T05:43:48;98670.00;;;25.09;58.33
33163;BME280;29282;45.656;11.302;2023-06-24T05:46:16;98670.78;;;25.09;58.20
33163;BME280;29282;45.656;11.302;2023-06-24T05:48:42;98665.25;;;25.09;58.10
33163;BME280;29282;45.656;11.302;2023-06-24T05:51:07;98667.66;;;25.11;58.25
33163;BME280;29282;45.656;11.302;2023-06-24T05:53:34;98670.44;;;25.11;58.23
33163;BME280;29282;45.656;11.302;2023-06-24T05:55:59;98667.66;;;25.11;58.23
33163;BME280;29282;45.656;11.302;2023-06-24T05:58:25;98678.75;;;25.11;58.22
33163;BME280;29282;45.656;11.302;2023-06-24T06:00:50;98678.75;;;25.11;58.02
33163;BME280;29282;45.656;11.302;2023-06-24T06:03:16;98682.34;;;25.12;58.19
33163;BME280;29282;45.656;11.302;2023-06-24T06:05:42;98681.19;;;25.13;58.10
33163;BME280;29282;45.656;11.302;2023-06-24T06:08:07;98685.91;;;25.12;58.20
33163;BME280;29282;45.656;11.302;2023-06-24T06:10:33;98689.03;;;25.11;58.22
33163;BME280;29282;45.656;11.302;2023-06-24T06:12:58;98685.91;;;25.12;58.14
33163;BME280;29282;45.656;11.302;2023-06-24T06:15:24;98687.50;;;25.13;58.16
33163;BME280;29282;45.656;11.302;2023-06-24T06:17:51;98691.91;;;25.14;58.17
33163;BME280;29282;45.656;11.302;2023-06-24T06:20:17;98695.47;;;25.15;58.13
33163;BME280;29282;45.656;11.302;2023-06-24T06:22:42;98688.75;;;25.16;58.23
33163;BME280;29282;45.656;11.302;2023-06-24T06:25:11;98684.84;;;25.17;58.14
33163;BME280;29282;45.656;11.302;2023-06-24T06:27:39;98684.84;;;25.17;58.29
33163;BME280;29282;45.656;11.302;2023-06-24T06:30:05;98684.44;;;25.18;58.12
33163;BME280;29282;45.656;11.302;2023-06-24T06:32:31;98680.88;;;25.18;58.36
33163;BME280;29282;45.656;11.302;2023-06-24T06:34:57;98686.03;;;25.19;58.23
33163;BME280;29282;45.656;11.302;2023-06-24T06:37:22;98682.47;;;25.19;58.09
33163;BME280;29282;45.656;11.302;2023-06-24T06:39:47;98682.13;;;25.20;58.16
33163;BME280;29282;45.656;11.302;2023-06-24T06:42:13;98686.84;;;25.20;58.18
33163;BME280;29282;45.656;11.302;2023-06-24T06:44:39;98682.91;;;25.21;58.13
33163;BME280;29282;45.656;11.302;2023-06-24T06:47:05;98688.47;;;25.21;58.00
33163;BME280;29282;45.656;11.302;2023-06-24T06:49:31;98694.81;;;25.21;58.21
33163;BME280;29282;45.656;11.302;2023-06-24T06:51:57;98694.81;;;25.21;58.13
33163;BME280;29282;45.656;11.302;2023-06-24T06:54:22;98698.75;;;25.20;58.17
33163;BME280;29282;45.656;11.302;2023-06-24T06:56:48;98701.94;;;25.22;58.09
33163;BME280;29282;45.656;11.302;2023-06-24T06:59:13;98697.56;;;25.21;58.31
33163;BME280;29282;45.656;11.302;2023-06-24T07:01:39;98701.94;;;25.22;58.11
33163;BME280;29282;45.656;11.302;2023-06-24T07:04:04;98703.13;;;25.21;58.00
33163;BME280;29282;45.656;11.302;2023-06-24T07:06:30;98709.47;;;25.22;58.06
33163;BME280;29282;45.656;11.302;2023-06-24T07:08:58;98701.16;;;25.22;58.06
33163;BME280;29282;45.656;11.302;2023-06-24T07:11:23;98703.13;;;25.21;58.05
33163;BME280;29282;45.656;11.302;2023-06-24T07:13:49;98709.84;;;25.20;58.24
33163;BME280;29282;45.656;11.302;2023-06-24T07:16:17;98708.66;;;25.21;57.91
33163;BME280;29282;45.656;11.302;2023-06-24T07:18:43;98715.75;;;25.19;58.07
33163;BME280;29282;45.656;11.302;2023-06-24T07:21:09;98718.97;;;25.21;58.24
33163;BME280;29282;45.656;11.302;2023-06-24T07:23:34;98723.72;;;25.20;58.22
33163;BME280;29282;45.656;11.302;2023-06-24T07:26:00;98727.63;;;25.19;58.04
33163;BME280;29282;45.656;11.302;2023-06-24T07:28:25;98722.09;;;25.19;58.10
33163;BME280;29282;45.656;11.302;2023-06-24T07:30:51;98723.25;;;25.18;58.24
33163;BME280;29282;45.656;11.302;2023-06-24T07:33:16;98723.25;;;25.18;58.13
33163;BME280;29282;45.656;11.302;2023-06-24T07:35:42;98720.06;;;25.16;58.26
33163;BME280;29282;45.656;11.302;2023-06-24T07:38:07;98718.91;;;25.17;57.93
33163;BME280;29282;45.656;11.302;2023-06-24T07:40:33;98720.06;;;25.16;58.12
33163;BME280;29282;45.656;11.302;2023-06-24T07:42:59;98722.81;;;25.16;58.11
33163;BME280;29282;45.656;11.302;2023-06-24T07:45:24;98724.00;;;25.15;58.16
33163;BME280;29282;45.656;11.302;2023-06-24T07:47:50;98724.00;;;25.15;58.19
33163;BME280;29282;45.656;11.302;2023-06-24T07:50:16;98714.88;;;25.15;58.15
33163;BME280;29282;45.656;11.302;2023-06-24T07:52:42;98718.47;;;25.15;58.20
33163;BME280;29282;45.656;11.302;2023-06-24T07:55:11;98722.41;;;25.14;58.15
33163;BME280;29282;45.656;11.302;2023-06-24T07:57:36;98714.88;;;25.15;58.28
33163;BME280;29282;45.656;11.302;2023-06-24T08:00:02;98715.69;;;25.15;58.21
33163;BME280;29282;45.656;11.302;2023-06-24T08:02:31;98708.53;;;25.14;58.11
33163;BME280;29282;45.656;11.302;2023-06-24T08:04:56;98710.53;;;25.14;58.17
33163;BME280;29282;45.656;11.302;2023-06-24T08:07:22;98710.53;;;25.14;58.31
33163;BME280;29282;45.656;11.302;2023-06-24T08:09:47;98706.94;;;25.13;58.13
33163;BME280;29282;45.656;11.302;2023-06-24T08:12:13;98705.34;;;25.12;58.20
33163;BME280;29282;45.656;11.302;2023-06-24T08:14:38;98713.28;;;25.14;58.35
33163;BME280;29282;45.656;11.302;2023-06-24T08:17:04;98713.66;;;25.12;58.29
33163;BME280;29282;45.656;11.302;2023-06-24T08:19:29;98708.91;;;25.13;58.20
33163;BME280;29282;45.656;11.302;2023-06-24T08:21:55;98712.03;;;25.11;58.42
33163;BME280;29282;45.656;11.302;2023-06-24T08:24:20;98708.47;;;25.11;58.32
33163;BME280;29282;45.656;11.302;2023-06-24T08:26:46;98705.69;;;25.11;58.48
33163;BME280;29282;45.656;11.302;2023-06-24T08:29:11;98698.16;;;25.11;58.43
33163;BME280;29282;45.656;11.302;2023-06-24T08:31:37;98702.56;;;25.12;58.38
33163;BME280;29282;45.656;11.302;2023-06-24T08:34:03;98706.47;;;25.11;58.33
33163;BME280;29282;45.656;11.302;2023-06-24T08:36:29;98700.94;;;25.11;58.47
33163;BME280;29282;45.656;11.302;2023-06-24T08:38:55;98691.81;;;25.11;58.37
33163;BME280;29282;45.656;11.302;2023-06-24T08:41:20;98698.50;;;25.09;58.47
33163;BME280;29282;45.656;11.302;2023-06-24T08:43:47;98686.63;;;25.09;58.49
33163;BME280;29282;45.656;11.302;2023-06-24T08:46:13;98689.03;;;25.11;58.31
33163;BME280;29282;45.656;11.302;2023-06-24T08:48:42;98692.97;;;25.09;58.33
33163;BME280;29282;45.656;11.302;2023-06-24T08:51:09;98684.66;;;25.09;58.20
33163;BME280;29282;45.656;11.302;2023-06-24T08:53:38;98692.16;;;25.09;58.44
33163;BME280;29282;45.656;11.302;2023-06-24T08:56:04;98691.03;;;25.10;58.29
33163;BME280;29282;45.656;11.302;2023-06-24T08:58:29;98681.88;;;25.09;58.59
33163;BME280;29282;45.656;11.302;2023-06-24T09:00:55;98685.47;;;25.10;58.16
33163;BME280;29282;45.656;11.302;2023-06-24T09:03:22;98677.16;;;25.10;58.44
33163;BME280;29282;45.656;11.302;2023-06-24T09:05:47;98679.94;;;25.10;58.48
33163;BME280;29282;45.656;11.302;2023-06-24T09:08:14;98677.97;;;25.11;58.47
33163;BME280;29282;45.656;11.302;2023-06-24T09:10:41;98674.38;;;25.10;58.50
33163;BME280;29282;45.656;11.302;2023-06-24T09:13:07;98677.16;;;25.10;58.38
33163;BME280;29282;45.656;11.302;2023-06-24T09:15:33;98668.84;;;25.10;58.45
33163;BME280;29282;45.656;11.302;2023-06-24T09:17:59;98678.75;;;25.11;58.25
33163;BME280;29282;45.656;11.302;2023-06-24T09:20:29;98670.00;;;25.09;58.44
33163;BME280;29282;45.656;11.302;2023-06-24T09:22:59;98668.84;;;25.10;58.43
33163;BME280;29282;45.656;11.302;2023-06-24T09:25:25;98665.25;;;25.09;58.55
33163;BME280;29282;45.656;11.302;2023-06-24T09:27:51;98663.66;;;25.08;58.37
33163;BME280;29282;45.656;11.302;2023-06-24T09:32:45;98658.91;;;25.09;58.47
33163;BME280;29282;45.656;11.302;2023-06-24T09:35:10;98654.97;;;25.10;58.57
33163;BME280;29282;45.656;11.302;2023-06-24T09:37:36;98653.34;;;25.09;58.61
33163;BME280;29282;45.656;11.302;2023-06-24T09:40:01;98656.94;;;25.09;58.27
33163;BME280;29282;45.656;11.302;2023-06-24T09:42:30;98656.13;;;25.09;58.62
33163;BME280;29282;45.656;11.302;2023-06-24T09:44:56;98654.16;;;25.09;58.63
33163;BME280;29282;45.656;11.302;2023-06-24T09:47:22;98647.03;;;25.08;58.55
33163;BME280;29282;45.656;11.302;2023-06-24T09:49:51;98648.63;;;25.09;58.53
33163;BME280;29282;45.656;11.302;2023-06-24T09:52:18;98646.22;;;25.08;58.57
33163;BME280;29282;45.656;11.302;2023-06-24T09:54:46;98644.25;;;25.08;58.51
33163;BME280;29282;45.656;11.302;2023-06-24T09:57:23;98636.72;;;25.09;58.55
33163;BME280;29282;45.656;11.302;2023-06-24T09:59:51;98638.69;;;25.08;58.67
33163;BME280;29282;45.656;11.302;2023-06-24T10:02:18;98639.50;;;25.09;58.55
33163;BME280;29282;45.656;11.302;2023-06-24T10:04:44;98635.13;;;25.08;58.56
33163;BME280;29282;45.656;11.302;2023-06-24T10:07:15;98633.94;;;25.09;58.53
33163;BME280;29282;45.656;11.302;2023-06-24T10:09:40;98629.59;;;25.08;58.60
33163;BME280;29282;45.656;11.302;2023-06-24T10:12:09;98630.81;;;25.11;58.81
33163;BME280;29282;45.656;11.302;2023-06-24T10:14:35;98625.63;;;25.09;58.53
33163;BME280;29282;45.656;11.302;2023-06-24T10:17:04;98621.28;;;25.08;58.36
33163;BME280;29282;45.656;11.302;2023-06-24T10:19:37;98619.28;;;25.08;58.50
33163;BME280;29282;45.656;11.302;2023-06-24T10:22:09;98616.53;;;25.08;58.47
33163;BME280;29282;45.656;11.302;2023-06-24T10:24:39;98618.50;;;25.08;58.64
33163;BME280;29282;45.656;11.302;2023-06-24T10:27:08;98616.53;;;25.08;58.62
33163;BME280;29282;45.656;11.302;2023-06-24T10:29:35;98613.75;;;25.08;58.82
33163;BME280;29282;45.656;11.302;2023-06-24T10:32:07;98613.75;;;25.08;58.67
33163;BME280;29282;45.656;11.302;2023-06-24T10:37:04;98613.41;;;25.10;58.57
33163;BME280;29282;45.656;11.302;2023-06-24T10:39:49;98609.00;;;25.09;58.54
33163;BME280;29282;45.656;11.302;2023-06-24T10:42:40;98597.91;;;25.09;58.66
33163;BME280;29282;45.656;11.302;2023-06-24T10:47:45;98600.69;;;25.09;58.52
33163;BME280;29282;45.656;11.302;2023-06-24T10:50:13;98595.13;;;25.09;58.56
33163;BME280;29282;45.656;11.302;2023-06-24T10:52:40;98595.13;;;25.09;58.77
33163;BME280;29282;45.656;11.302;2023-06-24T10:55:07;98586.81;;;25.09;58.56
33163;BME280;29282;45.656;11.302;2023-06-24T10:57:33;98581.28;;;25.09;58.49
33163;BME280;29282;45.656;11.302;2023-06-24T10:59:59;98584.84;;;25.09;58.53
33163;BME280;29282;45.656;11.302;2023-06-24T11:02:30;98581.28;;;25.09;58.58
33163;BME280;29282;45.656;11.302;2023-06-24T11:04:58;98580.47;;;25.08;58.53
33163;BME280;29282;45.656;11.302;2023-06-24T11:07:26;98578.50;;;25.09;58.53
33163;BME280;29282;45.656;11.302;2023-06-24T11:09:54;98569.03;;;25.10;58.61
33163;BME280;29282;45.656;11.302;2023-06-24T11:12:24;98560.72;;;25.10;58.61
33163;BME280;29282;45.656;11.302;2023-06-24T11:14:51;98566.63;;;25.08;58.64
33163;BME280;29282;45.656;11.302;2023-06-24T11:17:16;98554.34;;;25.09;58.48
33163;BME280;29282;45.656;11.302;2023-06-24T11:19:44;98560.72;;;25.10;58.70
33163;BME280;29282;45.656;11.302;2023-06-24T11:22:10;98550.78;;;25.09;58.61
33163;BME280;29282;45.656;11.302;2023-06-24T11:24:36;98556.75;;;25.11;58.54
33163;BME280;29282;45.656;11.302;2023-06-24T11:27:03;98555.19;;;25.10;58.53
33163;BME280;29282;45.656;11.302;2023-06-24T11:29:29;98554.00;;;25.11;58.47
33163;BME280;29282;45.656;11.302;2023-06-24T11:31:55;98548.00;;;25.09;58.43
33163;BME280;29282;45.656;11.302;2023-06-24T11:34:21;98546.84;;;25.10;58.62
33163;BME280;29282;45.656;11.302;2023-06-24T11:36:47;98544.88;;;25.11;58.62
33163;BME280;29282;45.656;11.302;2023-06-24T11:39:31;98547.66;;;25.11;58.48
33163;BME280;29282;45.656;11.302;2023-06-24T11:41:57;98540.13;;;25.11;58.43
33163;BME280;29282;45.656;11.302;2023-06-24T11:44:24;98542.09;;;25.11;58.59
33163;BME280;29282;45.656;11.302;2023-06-24T11:46:50;98536.56;;;25.11;58.70
33163;BME280;29282;45.656;11.302;2023-06-24T11:49:16;98526.28;;;25.11;58.52
33163;BME280;29282;45.656;11.302;2023-06-24T11:51:49;98539.34;;;25.11;58.59
33163;BME280;29282;45.656;11.302;2023-06-24T11:54:17;98528.25;;;25.11;58.63
33163;BME280;29282;45.656;11.302;2023-06-24T11:56:44;98529.88;;;25.12;58.62
33163;BME280;29282;45.656;11.302;2023-06-24T11:59:26;98529.03;;;25.11;58.50
33163;BME280;29282;45.656;11.302;2023-06-24T12:01:56;98531.81;;;25.11;58.49
33163;BME280;29282;45.656;11.302;2023-06-24T12:04:32;98534.59;;;25.11;58.51
33163;BME280;29282;45.656;11.302;2023-06-24T12:06:59;98536.22;;;25.12;58.44
33163;BME280;29282;45.656;11.302;2023-06-24T12:09:25;98537.34;;;25.11;58.56
33163;BME280;29282;45.656;11.302;2023-06-24T12:11:51;98529.03;;;25.11;58.55
33163;BME280;29282;45.656;11.302;2023-06-24T12:14:17;98525.13;;;25.12;58.51
33163;BME280;29282;45.656;11.302;2023-06-24T12:16:43;98525.47;;;25.11;58.54
33163;BME280;29282;45.656;11.302;2023-06-24T12:19:08;98535.41;;;25.12;58.51
33163;BME280;29282;45.656;11.302;2023-06-24T12:21:35;98527.09;;;25.12;58.60
33163;BME280;29282;45.656;11.302;2023-06-24T12:24:01;98536.22;;;25.12;58.70
33163;BME280;29282;45.656;11.302;2023-06-24T12:26:27;98524.31;;;25.12;58.53
33163;BME280;29282;45.656;11.302;2023-06-24T12:28:55;98535.41;;;25.12;58.63
33163;BME280;29282;45.656;11.302;2023-06-24T12:31:22;98531.81;;;25.11;58.58
33163;BME280;29282;45.656;11.302;2023-06-24T12:33:48;98537.34;;;25.11;58.63
33163;BME280;29282;45.656;11.302;2023-06-24T12:36:14;98527.09;;;25.12;58.58
33163;BME280;29282;45.656;11.302;2023-06-24T12:38:39;98529.47;;;25.13;58.68
33163;BME280;29282;45.656;11.302;2023-06-24T12:41:05;98524.75;;;25.14;58.81
33163;BME280;29282;45.656;11.302;2023-06-24T12:43:32;98528.31;;;25.14;58.41
33163;BME280;29282;45.656;11.302;2023-06-24T12:45:58;98524.75;;;25.14;58.54
33163;BME280;29282;45.656;11.302;2023-06-24T12:48:23;98528.31;;;25.14;58.51
33163;BME280;29282;45.656;11.302;2023-06-24T12:50:49;98521.16;;;25.13;58.50
33163;BME280;29282;45.656;11.302;2023-06-24T12:53:21;98521.97;;;25.14;58.68
33163;BME280;29282;45.656;11.302;2023-06-24T12:55:47;98520.81;;;25.15;58.49
33163;BME280;29282;45.656;11.302;2023-06-24T12:58:19;98518.81;;;25.15;58.59
33163;BME280;29282;45.656;11.302;2023-06-24T13:00:44;98520.81;;;25.15;58.58
33163;BME280;29282;45.656;11.302;2023-06-24T13:03:10;98518.81;;;25.15;58.57
33163;BME280;29282;45.656;11.302;2023-06-24T13:05:35;98523.56;;;25.15;58.56
33163;BME280;29282;45.656;11.302;2023-06-24T13:08:01;98525.56;;;25.14;58.56
33163;BME280;29282;45.656;11.302;2023-06-24T13:10:29;98531.09;;;25.14;58.56